KESC/ESC METAR and TAF weather

Enter ICAO airport designator
Station Type Date Time Source
KESC METAR 2019/07/20 04:56 UTC NOAA

KESC 200456Z AUTO 21013G20KT 10SM CLR 27/22 A2966 RMK AO2 PK WND 13039/0412 RAE05 SLP041 T02670217 403060200


Station Type Date Time Source
KESC Decoded METAR 2019/07/20 04:56 UTC NOAA

Escanaba, MI, United States (KESC) 45-45N 087-02W 187M
Jul 20, 2019 - 12:56 AM EDT / 2019.07.20 0456 UTC
Wind: from the SSW (210 degrees) at 15 MPH (13 KT) gusting to 23 MPH (20 KT):0
Visibility: 10 mile(s):0
Sky conditions: clear
Temperature: 80.1 F (26.7 C)
Dew Point: 71.1 F (21.7 C)
Relative Humidity: 74%
Pressure (altimeter): 29.66 in. Hg (1004 hPa)
ob: KESC 200456Z AUTO 21013G20KT 10SM CLR 27/22 A2966 RMK AO2 PK WND 13039/0412 RAE05 SLP041 T02670217 403060200
cycle: 5

Station Type Date Time Source
KESC TAF UTC NOAA

Error!

Example: see airport list